Main page
METAR-TAF:

METAR-TAF

Airports :

Memmingen, Germany

latitude: 47-59-33N, longitude: 10-14-37E, elevation: 633 m

Current weather observation

The report was made 7 hours and 0 minutes ago, at 19:50 UTC
Wind 6 kt from the East
Temperature 18°C
Humidity 64%
Pressure 1021 hPa
Visibility 10 km or more
no clouds below 1500 m and no cumulonimbus

METAR: EDJA 271950Z 09006KT CAVOK 18/11 Q1021

Time: 04:50 (02:50 UTC)

Forecast

The report was made 9 hours and 50 minutes ago, at 17:00 UTC
Forecast valid from 27 at 18 UTC to 28 at 03 UTC
Wind 3 kt from variable directions
Visibility 10 km or more
no clouds below 1500 m and no cumulonimbus

TAF: EDJA 271700Z 2718/2803 VRB03KT CAVOK

Weather observations and forecasts of more than 4000 airports (METAR and TAF reports).

The available stations are represented by yellow and red dots on the map.

Hover mouse over dot to see the name of the station.

Then click to see weather observations and forecasts.

To change the map : click on the green buttons with a black cross to zoom in, on the green button with a dash to zoom out, or on the green arrows for adjacent maps.


METAR-TAF: